sensor_id;sensor_type;location;lat;lon;timestamp;temperature;humidity
7646;DHT22;3864;48.180;14.178;2023-07-09T00:02:26;16.40;99.90
7646;DHT22;3864;48.180;14.178;2023-07-09T00:04:53;16.30;99.90
7646;DHT22;3864;48.180;14.178;2023-07-09T00:07:23;16.30;99.90
7646;DHT22;3864;48.180;14.178;2023-07-09T00:09:51;16.20;99.90
7646;DHT22;3864;48.180;14.178;2023-07-09T00:12:19;16.10;99.90
7646;DHT22;3864;48.180;14.178;2023-07-09T00:14:46;16.10;99.90
7646;DHT22;3864;48.180;14.178;2023-07-09T00:17:19;16.20;99.90
7646;DHT22;3864;48.180;14.178;2023-07-09T00:19:49;16.20;99.90
7646;DHT22;3864;48.180;14.178;2023-07-09T00:22:18;16.10;99.90
7646;DHT22;3864;48.180;14.178;2023-07-09T00:24:47;16.10;99.90
7646;DHT22;3864;48.180;14.178;2023-07-09T00:27:18;16.10;99.90
7646;DHT22;3864;48.180;14.178;2023-07-09T00:29:46;16.10;99.90
7646;DHT22;3864;48.180;14.178;2023-07-09T00:32:14;16.10;99.90
7646;DHT22;3864;48.180;14.178;2023-07-09T00:34:42;16.00;99.90
7646;DHT22;3864;48.180;14.178;2023-07-09T00:37:19;16.00;99.90
7646;DHT22;3864;48.180;14.178;2023-07-09T00:39:47;16.10;99.90
7646;DHT22;3864;48.180;14.178;2023-07-09T00:42:16;16.10;99.90
7646;DHT22;3864;48.180;14.178;2023-07-09T00:44:44;16.10;99.90
7646;DHT22;3864;48.180;14.178;2023-07-09T00:47:25;16.10;99.90
7646;DHT22;3864;48.180;14.178;2023-07-09T00:50:01;16.00;99.90
7646;DHT22;3864;48.180;14.178;2023-07-09T00:52:37;16.00;99.90
7646;DHT22;3864;48.180;14.178;2023-07-09T00:55:07;16.00;99.90
7646;DHT22;3864;48.180;14.178;2023-07-09T00:57:37;16.00;99.90
7646;DHT22;3864;48.180;14.178;2023-07-09T01:00:10;16.10;99.90
7646;DHT22;3864;48.180;14.178;2023-07-09T01:02:43;16.20;99.90
7646;DHT22;3864;48.180;14.178;2023-07-09T01:05:12;16.00;99.90
7646;DHT22;3864;48.180;14.178;2023-07-09T01:07:44;16.00;99.90
7646;DHT22;3864;48.180;14.178;2023-07-09T01:10:14;16.00;99.90
7646;DHT22;3864;48.180;14.178;2023-07-09T01:12:42;16.00;99.90
7646;DHT22;3864;48.180;14.178;2023-07-09T01:15:10;15.90;99.90
7646;DHT22;3864;48.180;14.178;2023-07-09T01:17:38;15.90;99.90
7646;DHT22;3864;48.180;14.178;2023-07-09T01:20:07;15.90;99.90
7646;DHT22;3864;48.180;14.178;2023-07-09T01:22:37;15.90;99.90
7646;DHT22;3864;48.180;14.178;2023-07-09T01:25:06;15.90;99.90
7646;DHT22;3864;48.180;14.178;2023-07-09T01:27:38;15.80;99.90
7646;DHT22;3864;48.180;14.178;2023-07-09T01:30:08;15.80;99.90
7646;DHT22;3864;48.180;14.178;2023-07-09T01:32:37;15.80;99.90
7646;DHT22;3864;48.180;14.178;2023-07-09T01:35:06;15.80;99.90
7646;DHT22;3864;48.180;14.178;2023-07-09T01:37:36;15.80;99.90
7646;DHT22;3864;48.180;14.178;2023-07-09T01:40:06;15.90;99.90
7646;DHT22;3864;48.180;14.178;2023-07-09T01:42:35;15.90;99.90
7646;DHT22;3864;48.180;14.178;2023-07-09T01:45:05;15.90;99.90
7646;DHT22;3864;48.180;14.178;2023-07-09T01:47:33;16.00;99.90
7646;DHT22;3864;48.180;14.178;2023-07-09T01:50:00;16.10;99.90
7646;DHT22;3864;48.180;14.178;2023-07-09T01:52:29;16.10;99.90
7646;DHT22;3864;48.180;14.178;2023-07-09T01:54:59;16.20;99.90
7646;DHT22;3864;48.180;14.178;2023-07-09T01:57:29;16.20;99.90
7646;DHT22;3864;48.180;14.178;2023-07-09T02:00:00;16.30;99.90
7646;DHT22;3864;48.180;14.178;2023-07-09T02:02:29;16.40;99.90
7646;DHT22;3864;48.180;14.178;2023-07-09T02:04:58;16.50;99.90
7646;DHT22;3864;48.180;14.178;2023-07-09T02:07:27;16.50;99.90
7646;DHT22;3864;48.180;14.178;2023-07-09T02:09:54;16.50;99.90
7646;DHT22;3864;48.180;14.178;2023-07-09T02:12:23;16.60;99.90
7646;DHT22;3864;48.180;14.178;2023-07-09T02:14:50;16.60;99.90
7646;DHT22;3864;48.180;14.178;2023-07-09T02:17:17;16.50;99.90
7646;DHT22;3864;48.180;14.178;2023-07-09T02:19:45;16.50;99.90
7646;DHT22;3864;48.180;14.178;2023-07-09T02:22:12;16.50;99.90
7646;DHT22;3864;48.180;14.178;2023-07-09T02:24:39;16.50;99.90
7646;DHT22;3864;48.180;14.178;2023-07-09T02:27:08;16.50;99.90
7646;DHT22;3864;48.180;14.178;2023-07-09T02:29:38;16.60;99.90
7646;DHT22;3864;48.180;14.178;2023-07-09T02:32:06;16.60;99.90
7646;DHT22;3864;48.180;14.178;2023-07-09T02:34:34;16.50;99.90
7646;DHT22;3864;48.180;14.178;2023-07-09T02:37:02;16.60;99.90
7646;DHT22;3864;48.180;14.178;2023-07-09T02:39:29;16.60;99.90
7646;DHT22;3864;48.180;14.178;2023-07-09T02:41:56;16.60;99.90
7646;DHT22;3864;48.180;14.178;2023-07-09T02:44:24;16.60;99.90
7646;DHT22;3864;48.180;14.178;2023-07-09T02:46:52;16.60;99.90
7646;DHT22;3864;48.180;14.178;2023-07-09T02:49:21;16.60;99.90
7646;DHT22;3864;48.180;14.178;2023-07-09T02:51:49;16.50;99.90
7646;DHT22;3864;48.180;14.178;2023-07-09T02:54:16;16.50;99.90
7646;DHT22;3864;48.180;14.178;2023-07-09T02:56:43;16.50;99.90
7646;DHT22;3864;48.180;14.178;2023-07-09T02:59:12;16.50;99.90
7646;DHT22;3864;48.180;14.178;2023-07-09T03:01:39;16.40;99.90
7646;DHT22;3864;48.180;14.178;2023-07-09T03:04:08;16.40;99.90
7646;DHT22;3864;48.180;14.178;2023-07-09T03:06:36;16.30;99.90
7646;DHT22;3864;48.180;14.178;2023-07-09T03:09:04;16.20;99.90
7646;DHT22;3864;48.180;14.178;2023-07-09T03:11:33;16.00;99.90
7646;DHT22;3864;48.180;14.178;2023-07-09T03:14:02;15.90;99.90
7646;DHT22;3864;48.180;14.178;2023-07-09T03:16:31;15.90;99.90
7646;DHT22;3864;48.180;14.178;2023-07-09T03:19:00;15.80;99.90
7646;DHT22;3864;48.180;14.178;2023-07-09T03:21:30;15.80;99.90
7646;DHT22;3864;48.180;14.178;2023-07-09T03:23:58;15.70;99.90
7646;DHT22;3864;48.180;14.178;2023-07-09T03:26:26;15.60;99.90
7646;DHT22;3864;48.180;14.178;2023-07-09T03:28:54;15.60;99.90
7646;DHT22;3864;48.180;14.178;2023-07-09T03:31:22;15.50;99.90
7646;DHT22;3864;48.180;14.178;2023-07-09T03:33:51;15.50;99.90
7646;DHT22;3864;48.180;14.178;2023-07-09T03:36:19;15.40;99.90
7646;DHT22;3864;48.180;14.178;2023-07-09T03:38:48;15.40;99.90
7646;DHT22;3864;48.180;14.178;2023-07-09T03:41:16;15.40;99.90
7646;DHT22;3864;48.180;14.178;2023-07-09T03:43:43;15.30;99.90
7646;DHT22;3864;48.180;14.178;2023-07-09T03:46:11;15.30;99.90
7646;DHT22;3864;48.180;14.178;2023-07-09T03:48:38;15.30;99.90
7646;DHT22;3864;48.180;14.178;2023-07-09T03:51:05;15.30;99.90
7646;DHT22;3864;48.180;14.178;2023-07-09T03:53:32;15.40;99.90
7646;DHT22;3864;48.180;14.178;2023-07-09T03:56:01;15.40;99.90
7646;DHT22;3864;48.180;14.178;2023-07-09T03:58:29;15.50;99.90
7646;DHT22;3864;48.180;14.178;2023-07-09T04:00:56;15.50;99.90
7646;DHT22;3864;48.180;14.178;2023-07-09T04:03:24;15.50;99.90
7646;DHT22;3864;48.180;14.178;2023-07-09T04:05:51;15.50;99.90
7646;DHT22;3864;48.180;14.178;2023-07-09T04:08:19;15.50;99.90
7646;DHT22;3864;48.180;14.178;2023-07-09T04:10:46;15.60;99.90
7646;DHT22;3864;48.180;14.178;2023-07-09T04:13:15;15.70;99.90
7646;DHT22;3864;48.180;14.178;2023-07-09T04:15:43;15.80;99.90
7646;DHT22;3864;48.180;14.178;2023-07-09T04:18:10;15.80;99.90
7646;DHT22;3864;48.180;14.178;2023-07-09T04:20:38;15.80;99.90
7646;DHT22;3864;48.180;14.178;2023-07-09T04:23:06;15.80;99.90
7646;DHT22;3864;48.180;14.178;2023-07-09T04:25:33;15.90;99.90
7646;DHT22;3864;48.180;14.178;2023-07-09T04:28:00;16.00;99.90
7646;DHT22;3864;48.180;14.178;2023-07-09T04:30:29;16.10;99.90
7646;DHT22;3864;48.180;14.178;2023-07-09T04:32:57;16.20;99.90
7646;DHT22;3864;48.180;14.178;2023-07-09T04:35:25;16.30;99.90
7646;DHT22;3864;48.180;14.178;2023-07-09T04:37:52;16.50;99.90
7646;DHT22;3864;48.180;14.178;2023-07-09T04:40:20;16.60;99.90
7646;DHT22;3864;48.180;14.178;2023-07-09T04:42:47;16.70;99.90
7646;DHT22;3864;48.180;14.178;2023-07-09T04:45:15;17.00;99.90
7646;DHT22;3864;48.180;14.178;2023-07-09T04:47:43;17.20;99.90
7646;DHT22;3864;48.180;14.178;2023-07-09T04:50:11;17.30;99.90
7646;DHT22;3864;48.180;14.178;2023-07-09T04:52:39;17.40;99.90
7646;DHT22;3864;48.180;14.178;2023-07-09T04:55:08;17.40;99.90
7646;DHT22;3864;48.180;14.178;2023-07-09T04:57:36;17.70;99.90
7646;DHT22;3864;48.180;14.178;2023-07-09T05:00:04;18.20;99.90
7646;DHT22;3864;48.180;14.178;2023-07-09T05:02:32;18.40;99.90
7646;DHT22;3864;48.180;14.178;2023-07-09T05:05:02;18.50;99.90
7646;DHT22;3864;48.180;14.178;2023-07-09T05:07:31;18.60;99.90
7646;DHT22;3864;48.180;14.178;2023-07-09T05:09:59;18.90;99.90
7646;DHT22;3864;48.180;14.178;2023-07-09T05:12:27;19.60;99.90
7646;DHT22;3864;48.180;14.178;2023-07-09T05:14:55;20.90;99.90
7646;DHT22;3864;48.180;14.178;2023-07-09T05:17:23;22.10;99.90
7646;DHT22;3864;48.180;14.178;2023-07-09T05:19:51;23.10;99.90
7646;DHT22;3864;48.180;14.178;2023-07-09T05:22:19;24.10;99.90
7646;DHT22;3864;48.180;14.178;2023-07-09T05:24:46;24.70;99.90
7646;DHT22;3864;48.180;14.178;2023-07-09T05:27:14;25.00;99.90
7646;DHT22;3864;48.180;14.178;2023-07-09T05:29:41;25.30;99.90
7646;DHT22;3864;48.180;14.178;2023-07-09T05:32:08;25.90;99.90
7646;DHT22;3864;48.180;14.178;2023-07-09T05:34:36;26.90;99.90
7646;DHT22;3864;48.180;14.178;2023-07-09T05:37:03;27.40;99.90
7646;DHT22;3864;48.180;14.178;2023-07-09T05:39:32;27.30;99.90
7646;DHT22;3864;48.180;14.178;2023-07-09T05:42:00;27.00;99.90
7646;DHT22;3864;48.180;14.178;2023-07-09T05:44:27;27.20;99.90
7646;DHT22;3864;48.180;14.178;2023-07-09T05:46:54;27.70;99.90
7646;DHT22;3864;48.180;14.178;2023-07-09T05:49:22;27.80;99.90
7646;DHT22;3864;48.180;14.178;2023-07-09T05:51:49;27.90;99.90
7646;DHT22;3864;48.180;14.178;2023-07-09T05:54:17;27.90;99.90
7646;DHT22;3864;48.180;14.178;2023-07-09T05:56:46;28.20;99.90
7646;DHT22;3864;48.180;14.178;2023-07-09T05:59:13;28.90;99.90
7646;DHT22;3864;48.180;14.178;2023-07-09T06:01:41;29.30;99.90
7646;DHT22;3864;48.180;14.178;2023-07-09T06:04:08;29.00;99.90
7646;DHT22;3864;48.180;14.178;2023-07-09T06:06:39;29.10;99.90
7646;DHT22;3864;48.180;14.178;2023-07-09T06:09:08;28.90;99.90
7646;DHT22;3864;48.180;14.178;2023-07-09T06:11:35;29.40;99.90
7646;DHT22;3864;48.180;14.178;2023-07-09T06:14:04;29.30;99.90
7646;DHT22;3864;48.180;14.178;2023-07-09T06:16:31;29.30;99.90
7646;DHT22;3864;48.180;14.178;2023-07-09T06:18:59;29.60;99.90
7646;DHT22;3864;48.180;14.178;2023-07-09T06:21:26;30.00;99.90
7646;DHT22;3864;48.180;14.178;2023-07-09T06:23:53;30.90;99.90
7646;DHT22;3864;48.180;14.178;2023-07-09T06:26:21;31.20;99.90
7646;DHT22;3864;48.180;14.178;2023-07-09T06:28:49;32.00;99.90
7646;DHT22;3864;48.180;14.178;2023-07-09T06:31:17;32.20;99.90
7646;DHT22;3864;48.180;14.178;2023-07-09T06:33:46;33.00;99.90
7646;DHT22;3864;48.180;14.178;2023-07-09T06:36:14;33.20;99.90
7646;DHT22;3864;48.180;14.178;2023-07-09T06:38:41;33.40;99.90
7646;DHT22;3864;48.180;14.178;2023-07-09T06:41:09;33.80;99.90
7646;DHT22;3864;48.180;14.178;2023-07-09T06:43:37;34.00;99.90
7646;DHT22;3864;48.180;14.178;2023-07-09T06:46:06;34.20;99.90
7646;DHT22;3864;48.180;14.178;2023-07-09T06:48:35;34.60;99.90
7646;DHT22;3864;48.180;14.178;2023-07-09T06:51:03;34.40;99.80
7646;DHT22;3864;48.180;14.178;2023-07-09T06:53:30;34.50;99.40
7646;DHT22;3864;48.180;14.178;2023-07-09T06:55:58;34.30;99.00
7646;DHT22;3864;48.180;14.178;2023-07-09T06:58:27;35.10;98.80
7646;DHT22;3864;48.180;14.178;2023-07-09T07:00:55;35.50;98.10
7646;DHT22;3864;48.180;14.178;2023-07-09T07:03:22;35.40;97.40
7646;DHT22;3864;48.180;14.178;2023-07-09T07:05:52;35.50;97.30
7646;DHT22;3864;48.180;14.178;2023-07-09T07:08:22;35.10;96.70
7646;DHT22;3864;48.180;14.178;2023-07-09T07:10:50;35.50;96.40
7646;DHT22;3864;48.180;14.178;2023-07-09T07:13:27;35.40;96.10
7646;DHT22;3864;48.180;14.178;2023-07-09T07:15:54;34.30;94.40
7646;DHT22;3864;48.180;14.178;2023-07-09T07:18:22;34.90;96.90
7646;DHT22;3864;48.180;14.178;2023-07-09T07:20:50;35.10;96.80
7646;DHT22;3864;48.180;14.178;2023-07-09T07:23:18;35.70;95.60
7646;DHT22;3864;48.180;14.178;2023-07-09T07:25:46;35.80;94.50
7646;DHT22;3864;48.180;14.178;2023-07-09T07:28:14;37.20;95.50
7646;DHT22;3864;48.180;14.178;2023-07-09T07:30:41;36.80;94.60
7646;DHT22;3864;48.180;14.178;2023-07-09T07:33:09;36.20;94.50
7646;DHT22;3864;48.180;14.178;2023-07-09T07:35:37;36.50;94.30
7646;DHT22;3864;48.180;14.178;2023-07-09T07:38:06;35.70;93.00
7646;DHT22;3864;48.180;14.178;2023-07-09T07:40:33;34.70;95.10
7646;DHT22;3864;48.180;14.178;2023-07-09T07:43:01;34.50;95.30
7646;DHT22;3864;48.180;14.178;2023-07-09T07:45:28;34.70;95.90
7646;DHT22;3864;48.180;14.178;2023-07-09T07:47:56;34.70;96.20
7646;DHT22;3864;48.180;14.178;2023-07-09T07:50:24;34.40;95.40
7646;DHT22;3864;48.180;14.178;2023-07-09T07:52:51;33.60;94.00
7646;DHT22;3864;48.180;14.178;2023-07-09T07:55:20;32.90;96.30
7646;DHT22;3864;48.180;14.178;2023-07-09T07:57:48;33.60;96.20
7646;DHT22;3864;48.180;14.178;2023-07-09T08:00:16;33.70;96.20
7646;DHT22;3864;48.180;14.178;2023-07-09T08:02:44;33.50;95.60
7646;DHT22;3864;48.180;14.178;2023-07-09T08:05:12;33.80;95.40
7646;DHT22;3864;48.180;14.178;2023-07-09T08:07:39;33.60;95.30
7646;DHT22;3864;48.180;14.178;2023-07-09T08:10:07;33.90;95.20
7646;DHT22;3864;48.180;14.178;2023-07-09T08:12:37;34.00;95.20
7646;DHT22;3864;48.180;14.178;2023-07-09T08:15:05;33.80;95.40
7646;DHT22;3864;48.180;14.178;2023-07-09T08:17:33;33.00;95.50
7646;DHT22;3864;48.180;14.178;2023-07-09T08:20:00;33.00;95.90
7646;DHT22;3864;48.180;14.178;2023-07-09T08:22:28;32.60;96.10
7646;DHT22;3864;48.180;14.178;2023-07-09T08:24:55;32.70;95.70
7646;DHT22;3864;48.180;14.178;2023-07-09T08:27:22;32.60;97.00
7646;DHT22;3864;48.180;14.178;2023-07-09T08:29:51;31.30;94.00
7646;DHT22;3864;48.180;14.178;2023-07-09T08:32:19;31.10;95.00
7646;DHT22;3864;48.180;14.178;2023-07-09T08:34:46;31.20;94.70
7646;DHT22;3864;48.180;14.178;2023-07-09T08:37:14;31.70;95.10
7646;DHT22;3864;48.180;14.178;2023-07-09T08:39:41;32.00;94.30
7646;DHT22;3864;48.180;14.178;2023-07-09T08:42:10;32.40;95.60
7646;DHT22;3864;48.180;14.178;2023-07-09T08:47:45;31.20;94.80
7646;DHT22;3864;48.180;14.178;2023-07-09T08:50:16;31.50;94.80
7646;DHT22;3864;48.180;14.178;2023-07-09T08:52:47;31.10;94.40
7646;DHT22;3864;48.180;14.178;2023-07-09T08:55:16;31.20;94.50
7646;DHT22;3864;48.180;14.178;2023-07-09T08:57:47;31.80;96.00
7646;DHT22;3864;48.180;14.178;2023-07-09T09:00:27;31.90;94.60
7646;DHT22;3864;48.180;14.178;2023-07-09T09:03:00;31.60;94.40
7646;DHT22;3864;48.180;14.178;2023-07-09T09:05:32;32.30;94.70
7646;DHT22;3864;48.180;14.178;2023-07-09T09:08:04;32.30;94.40
7646;DHT22;3864;48.180;14.178;2023-07-09T09:10:41;32.10;95.10
7646;DHT22;3864;48.180;14.178;2023-07-09T09:13:12;32.00;94.40
7646;DHT22;3864;48.180;14.178;2023-07-09T09:15:42;31.60;95.00
7646;DHT22;3864;48.180;14.178;2023-07-09T09:18:20;31.80;94.70
7646;DHT22;3864;48.180;14.178;2023-07-09T09:20:52;32.70;97.20
7646;DHT22;3864;48.180;14.178;2023-07-09T09:23:22;33.50;94.90
7646;DHT22;3864;48.180;14.178;2023-07-09T09:25:55;33.50;93.80
7646;DHT22;3864;48.180;14.178;2023-07-09T09:28:26;33.60;95.60
7646;DHT22;3864;48.180;14.178;2023-07-09T09:30:54;33.70;95.80
7646;DHT22;3864;48.180;14.178;2023-07-09T09:33:23;32.30;94.60
7646;DHT22;3864;48.180;14.178;2023-07-09T09:36:01;32.60;94.70
7646;DHT22;3864;48.180;14.178;2023-07-09T09:38:30;32.70;94.00
7646;DHT22;3864;48.180;14.178;2023-07-09T09:41:03;32.60;93.70
7646;DHT22;3864;48.180;14.178;2023-07-09T09:43:32;33.70;95.00
7646;DHT22;3864;48.180;14.178;2023-07-09T09:46:00;34.40;93.80
7646;DHT22;3864;48.180;14.178;2023-07-09T09:48:37;35.30;94.10
7646;DHT22;3864;48.180;14.178;2023-07-09T09:51:04;35.70;94.30
7646;DHT22;3864;48.180;14.178;2023-07-09T09:53:38;34.90;91.10
7646;DHT22;3864;48.180;14.178;2023-07-09T09:56:13;35.40;93.50
7646;DHT22;3864;48.180;14.178;2023-07-09T09:58:41;36.00;93.20
7646;DHT22;3864;48.180;14.178;2023-07-09T10:01:14;34.90;92.90
7646;DHT22;3864;48.180;14.178;2023-07-09T10:03:47;35.30;93.50
7646;DHT22;3864;48.180;14.178;2023-07-09T10:06:18;35.50;93.80
7646;DHT22;3864;48.180;14.178;2023-07-09T10:08:54;35.50;92.80
7646;DHT22;3864;48.180;14.178;2023-07-09T10:11:29;34.10;90.80
7646;DHT22;3864;48.180;14.178;2023-07-09T10:14:02;34.80;91.70
7646;DHT22;3864;48.180;14.178;2023-07-09T10:16:36;35.40;91.80
7646;DHT22;3864;48.180;14.178;2023-07-09T10:19:17;35.20;90.20
7646;DHT22;3864;48.180;14.178;2023-07-09T10:21:55;35.00;90.30
7646;DHT22;3864;48.180;14.178;2023-07-09T10:24:38;35.10;90.70
7646;DHT22;3864;48.180;14.178;2023-07-09T10:27:11;35.50;90.20
7646;DHT22;3864;48.180;14.178;2023-07-09T10:29:52;36.00;88.80
7646;DHT22;3864;48.180;14.178;2023-07-09T10:32:31;35.60;87.80
7646;DHT22;3864;48.180;14.178;2023-07-09T10:35:05;35.80;90.60
7646;DHT22;3864;48.180;14.178;2023-07-09T10:37:55;34.50;87.50
7646;DHT22;3864;48.180;14.178;2023-07-09T10:40:30;35.00;88.40
7646;DHT22;3864;48.180;14.178;2023-07-09T10:43:00;35.60;89.70
7646;DHT22;3864;48.180;14.178;2023-07-09T10:45:32;35.60;88.30
7646;DHT22;3864;48.180;14.178;2023-07-09T10:48:04;34.40;88.60
7646;DHT22;3864;48.180;14.178;2023-07-09T10:50:39;35.20;90.40
7646;DHT22;3864;48.180;14.178;2023-07-09T10:53:11;35.60;90.80
7646;DHT22;3864;48.180;14.178;2023-07-09T10:55:46;35.70;89.50
7646;DHT22;3864;48.180;14.178;2023-07-09T10:58:28;35.50;87.40
7646;DHT22;3864;48.180;14.178;2023-07-09T11:00:59;36.00;86.60
7646;DHT22;3864;48.180;14.178;2023-07-09T11:03:35;36.30;89.00
7646;DHT22;3864;48.180;14.178;2023-07-09T11:06:13;36.50;84.90
7646;DHT22;3864;48.180;14.178;2023-07-09T11:08:41;35.50;83.90
7646;DHT22;3864;48.180;14.178;2023-07-09T11:11:13;35.10;83.00
7646;DHT22;3864;48.180;14.178;2023-07-09T11:13:43;35.00;83.70
7646;DHT22;3864;48.180;14.178;2023-07-09T11:16:14;35.70;83.50
7646;DHT22;3864;48.180;14.178;2023-07-09T11:18:54;36.20;90.40
7646;DHT22;3864;48.180;14.178;2023-07-09T11:21:23;36.60;85.30
7646;DHT22;3864;48.180;14.178;2023-07-09T11:23:52;36.20;79.30
7646;DHT22;3864;48.180;14.178;2023-07-09T11:26:26;35.70;80.70
7646;DHT22;3864;48.180;14.178;2023-07-09T11:28:54;35.90;80.70
7646;DHT22;3864;48.180;14.178;2023-07-09T11:31:25;36.20;86.80
7646;DHT22;3864;48.180;14.178;2023-07-09T11:34:02;36.50;78.90
7646;DHT22;3864;48.180;14.178;2023-07-09T11:36:52;36.40;79.80
7646;DHT22;3864;48.180;14.178;2023-07-09T11:39:27;37.00;84.40
7646;DHT22;3864;48.180;14.178;2023-07-09T11:41:56;36.50;78.70
7646;DHT22;3864;48.180;14.178;2023-07-09T11:44:26;36.30;78.10
7646;DHT22;3864;48.180;14.178;2023-07-09T11:47:01;35.60;80.50
7646;DHT22;3864;48.180;14.178;2023-07-09T11:49:43;36.20;83.40
7646;DHT22;3864;48.180;14.178;2023-07-09T11:52:15;36.60;85.90
7646;DHT22;3864;48.180;14.178;2023-07-09T11:54:45;36.80;76.10
7646;DHT22;3864;48.180;14.178;2023-07-09T11:57:13;37.10;80.20
7646;DHT22;3864;48.180;14.178;2023-07-09T11:59:41;37.40;81.10
7646;DHT22;3864;48.180;14.178;2023-07-09T12:02:16;37.50;78.50
7646;DHT22;3864;48.180;14.178;2023-07-09T12:04:47;36.70;71.00
7646;DHT22;3864;48.180;14.178;2023-07-09T12:07:20;36.00;73.00
7646;DHT22;3864;48.180;14.178;2023-07-09T12:09:49;36.70;78.20
7646;DHT22;3864;48.180;14.178;2023-07-09T12:12:23;37.10;76.50
7646;DHT22;3864;48.180;14.178;2023-07-09T12:14:53;37.70;77.00
7646;DHT22;3864;48.180;14.178;2023-07-09T12:17:25;38.20;72.50
7646;DHT22;3864;48.180;14.178;2023-07-09T12:19:54;38.50;76.60
7646;DHT22;3864;48.180;14.178;2023-07-09T12:22:23;38.10;74.80
7646;DHT22;3864;48.180;14.178;2023-07-09T12:24:51;37.80;71.40
7646;DHT22;3864;48.180;14.178;2023-07-09T12:27:22;37.90;77.90
7646;DHT22;3864;48.180;14.178;2023-07-09T12:29:54;37.90;70.70
7646;DHT22;3864;48.180;14.178;2023-07-09T12:32:22;38.10;76.00
7646;DHT22;3864;48.180;14.178;2023-07-09T12:34:53;37.90;73.00
7646;DHT22;3864;48.180;14.178;2023-07-09T12:37:24;37.90;69.10
7646;DHT22;3864;48.180;14.178;2023-07-09T12:39:52;38.20;70.30
7646;DHT22;3864;48.180;14.178;2023-07-09T12:42:23;38.60;73.90
7646;DHT22;3864;48.180;14.178;2023-07-09T12:44:52;38.70;79.40
7646;DHT22;3864;48.180;14.178;2023-07-09T12:47:20;38.40;72.10
7646;DHT22;3864;48.180;14.178;2023-07-09T12:49:50;37.90;66.90
7646;DHT22;3864;48.180;14.178;2023-07-09T12:52:20;38.40;68.30
7646;DHT22;3864;48.180;14.178;2023-07-09T12:54:57;38.60;67.30
7646;DHT22;3864;48.180;14.178;2023-07-09T12:57:25;38.00;68.60
7646;DHT22;3864;48.180;14.178;2023-07-09T12:59:54;38.00;66.60
7646;DHT22;3864;48.180;14.178;2023-07-09T13:02:24;38.10;65.80
7646;DHT22;3864;48.180;14.178;2023-07-09T13:05:00;37.10;66.30
7646;DHT22;3864;48.180;14.178;2023-07-09T13:07:31;36.50;69.20
7646;DHT22;3864;48.180;14.178;2023-07-09T13:10:14;36.20;68.60
7646;DHT22;3864;48.180;14.178;2023-07-09T13:12:45;36.30;68.90
7646;DHT22;3864;48.180;14.178;2023-07-09T13:15:23;36.50;69.80
7646;DHT22;3864;48.180;14.178;2023-07-09T13:17:57;37.20;68.10
7646;DHT22;3864;48.180;14.178;2023-07-09T13:20:25;37.20;66.10
7646;DHT22;3864;48.180;14.178;2023-07-09T13:22:52;37.50;66.20
7646;DHT22;3864;48.180;14.178;2023-07-09T13:25:22;37.10;62.60
7646;DHT22;3864;48.180;14.178;2023-07-09T13:27:49;36.50;61.70
7646;DHT22;3864;48.180;14.178;2023-07-09T13:30:17;36.70;61.10
7646;DHT22;3864;48.180;14.178;2023-07-09T13:32:46;36.90;63.40
7646;DHT22;3864;48.180;14.178;2023-07-09T13:35:17;36.90;63.80
7646;DHT22;3864;48.180;14.178;2023-07-09T13:37:45;36.90;62.50
7646;DHT22;3864;48.180;14.178;2023-07-09T13:40:14;36.60;62.60
7646;DHT22;3864;48.180;14.178;2023-07-09T13:42:44;37.30;64.20
7646;DHT22;3864;48.180;14.178;2023-07-09T13:45:20;36.90;63.20
7646;DHT22;3864;48.180;14.178;2023-07-09T13:47:48;37.10;63.50
7646;DHT22;3864;48.180;14.178;2023-07-09T13:50:16;37.30;62.10
7646;DHT22;3864;48.180;14.178;2023-07-09T13:52:43;36.90;62.00
7646;DHT22;3864;48.180;14.178;2023-07-09T13:55:22;37.10;63.50
7646;DHT22;3864;48.180;14.178;2023-07-09T13:57:51;37.30;64.10
7646;DHT22;3864;48.180;14.178;2023-07-09T14:00:19;37.50;63.50
7646;DHT22;3864;48.180;14.178;2023-07-09T14:02:47;37.30;64.20
7646;DHT22;3864;48.180;14.178;2023-07-09T14:05:16;37.40;64.30
7646;DHT22;3864;48.180;14.178;2023-07-09T14:07:44;37.10;63.80
7646;DHT22;3864;48.180;14.178;2023-07-09T14:10:13;37.30;62.90
7646;DHT22;3864;48.180;14.178;2023-07-09T14:12:45;37.50;64.40
7646;DHT22;3864;48.180;14.178;2023-07-09T14:15:18;37.90;64.20
7646;DHT22;3864;48.180;14.178;2023-07-09T14:17:46;37.40;62.90
7646;DHT22;3864;48.180;14.178;2023-07-09T14:20:17;36.40;63.00
7646;DHT22;3864;48.180;14.178;2023-07-09T14:22:48;35.80;63.40
7646;DHT22;3864;48.180;14.178;2023-07-09T14:25:18;36.40;65.70
7646;DHT22;3864;48.180;14.178;2023-07-09T14:27:46;37.20;65.00
7646;DHT22;3864;48.180;14.178;2023-07-09T14:30:22;37.70;63.80
7646;DHT22;3864;48.180;14.178;2023-07-09T14:32:51;37.80;63.40
7646;DHT22;3864;48.180;14.178;2023-07-09T14:35:20;38.10;70.50
7646;DHT22;3864;48.180;14.178;2023-07-09T14:37:49;38.10;65.90
7646;DHT22;3864;48.180;14.178;2023-07-09T14:40:18;37.80;62.70
7646;DHT22;3864;48.180;14.178;2023-07-09T14:42:47;37.90;62.50
7646;DHT22;3864;48.180;14.178;2023-07-09T14:45:31;38.30;65.80
7646;DHT22;3864;48.180;14.178;2023-07-09T14:47:59;38.70;67.00
7646;DHT22;3864;48.180;14.178;2023-07-09T14:50:26;38.40;60.80
7646;DHT22;3864;48.180;14.178;2023-07-09T14:52:53;38.40;61.40
7646;DHT22;3864;48.180;14.178;2023-07-09T14:55:22;38.70;62.60
7646;DHT22;3864;48.180;14.178;2023-07-09T14:57:50;38.20;62.80
7646;DHT22;3864;48.180;14.178;2023-07-09T15:00:19;38.10;63.40
7646;DHT22;3864;48.180;14.178;2023-07-09T15:02:50;37.90;60.60
7646;DHT22;3864;48.180;14.178;2023-07-09T15:05:21;37.80;61.00
7646;DHT22;3864;48.180;14.178;2023-07-09T15:07:49;37.80;62.50
7646;DHT22;3864;48.180;14.178;2023-07-09T15:10:18;38.00;61.70
7646;DHT22;3864;48.180;14.178;2023-07-09T15:12:47;37.40;61.20
7646;DHT22;3864;48.180;14.178;2023-07-09T15:15:21;37.30;60.60
7646;DHT22;3864;48.180;14.178;2023-07-09T15:17:52;37.00;60.50
7646;DHT22;3864;48.180;14.178;2023-07-09T15:20:21;37.50;61.70
7646;DHT22;3864;48.180;14.178;2023-07-09T15:22:50;37.30;60.80
7646;DHT22;3864;48.180;14.178;2023-07-09T15:25:20;37.50;61.40
7646;DHT22;3864;48.180;14.178;2023-07-09T15:27:48;37.50;60.80
7646;DHT22;3864;48.180;14.178;2023-07-09T15:30:18;37.50;62.50
7646;DHT22;3864;48.180;14.178;2023-07-09T15:32:47;37.40;66.30
7646;DHT22;3864;48.180;14.178;2023-07-09T15:35:18;37.20;63.40
7646;DHT22;3864;48.180;14.178;2023-07-09T15:37:46;37.10;62.20
7646;DHT22;3864;48.180;14.178;2023-07-09T15:40:19;37.30;67.60
7646;DHT22;3864;48.180;14.178;2023-07-09T15:42:47;37.40;65.60
7646;DHT22;3864;48.180;14.178;2023-07-09T15:45:15;37.70;66.70
7646;DHT22;3864;48.180;14.178;2023-07-09T15:47:44;37.90;67.40
7646;DHT22;3864;48.180;14.178;2023-07-09T15:50:18;38.20;67.60
7646;DHT22;3864;48.180;14.178;2023-07-09T15:52:47;38.30;68.40
7646;DHT22;3864;48.180;14.178;2023-07-09T15:55:16;38.20;68.70
7646;DHT22;3864;48.180;14.178;2023-07-09T15:57:45;38.30;67.00
7646;DHT22;3864;48.180;14.178;2023-07-09T16:00:18;37.80;63.70
7646;DHT22;3864;48.180;14.178;2023-07-09T16:02:46;38.00;67.10
7646;DHT22;3864;48.180;14.178;2023-07-09T16:05:20;38.10;63.30